Terminal Aerodrome Forecast
Issued by NWS

Home | Current Version | Previous Version | Text Only | Print | Product List | Glossary On
Versions: 1 2 3 4 5 6 7 8 9 10 11 12 13 14 15 16 17 18 19 20 21 22 23 24 25 26 27 28
000
FTAK31 PAFA 280535
TAFASC
TAF
PASC 280535Z 2806/2906 07015KT P6SM BKN008
     FM280900 07012KT P6SM OVC003
     FM281200 07010KT 3SM BR OVC003
     FM281800 06012KT P6SM BKN007
     FM290000 04012KT P6SM BKN015 BKN100=

USA.gov is the U.S. government's official web portal to all federal, state and local government web resources and services.